sensor_id;sensor_type;location;lat;lon;timestamp;pressure;altitude;pressure_sealevel;temperature;humidity
41596;BME280;27283;52.504;13.358;2024-03-25T00:00:16;99414.50;;;7.51;89.34
41596;BME280;27283;52.504;13.358;2024-03-25T00:03:09;99415.63;;;8.47;85.92
41596;BME280;27283;52.504;13.358;2024-03-25T00:05:37;99422.19;;;7.92;86.57
41596;BME280;27283;52.504;13.358;2024-03-25T00:08:05;99413.19;;;8.38;85.44
41596;BME280;27283;52.504;13.358;2024-03-25T00:10:33;99419.25;;;8.55;84.32
41596;BME280;27283;52.504;13.358;2024-03-25T00:13:01;99418.13;;;8.64;84.13
41596;BME280;27283;52.504;13.358;2024-03-25T00:15:30;99421.28;;;7.99;85.68
41596;BME280;27283;52.504;13.358;2024-03-25T00:18:00;99428.47;;;8.52;85.00
41596;BME280;27283;52.504;13.358;2024-03-25T00:20:31;99427.13;;;8.33;85.00
41596;BME280;27283;52.504;13.358;2024-03-25T00:23:01;99426.56;;;8.23;85.68
41596;BME280;27283;52.504;13.358;2024-03-25T00:25:31;99423.56;;;8.26;85.85
41596;BME280;27283;52.504;13.358;2024-03-25T00:28:01;99432.59;;;8.40;84.99
41596;BME280;27283;52.504;13.358;2024-03-25T00:30:40;99433.72;;;8.75;84.19
41596;BME280;27283;52.504;13.358;2024-03-25T00:33:36;99433.66;;;8.68;83.08
41596;BME280;27283;52.504;13.358;2024-03-25T00:36:12;99445.06;;;8.32;84.14
41596;BME280;27283;52.504;13.358;2024-03-25T00:38:41;99450.13;;;8.42;83.67
41596;BME280;27283;52.504;13.358;2024-03-25T00:41:21;99438.22;;;7.54;88.42
41596;BME280;27283;52.504;13.358;2024-03-25T00:43:53;99450.50;;;8.09;85.85
41596;BME280;27283;52.504;13.358;2024-03-25T00:46:21;99453.41;;;8.52;84.64
41596;BME280;27283;52.504;13.358;2024-03-25T00:48:52;99449.75;;;7.54;88.18
41596;BME280;27283;52.504;13.358;2024-03-25T00:51:23;99458.59;;;7.55;88.30
41596;BME280;27283;52.504;13.358;2024-03-25T00:53:52;99452.31;;;7.48;90.00
41596;BME280;27283;52.504;13.358;2024-03-25T00:56:21;99455.41;;;8.36;84.95
41596;BME280;27283;52.504;13.358;2024-03-25T00:58:49;99449.22;;;7.97;85.83
41596;BME280;27283;52.504;13.358;2024-03-25T01:01:18;99456.69;;;7.17;87.51
41596;BME280;27283;52.504;13.358;2024-03-25T01:03:48;99453.75;;;7.58;89.40
41596;BME280;27283;52.504;13.358;2024-03-25T01:06:20;99456.91;;;7.31;88.99
41596;BME280;27283;52.504;13.358;2024-03-25T01:08:57;99458.00;;;6.90;91.41
41596;BME280;27283;52.504;13.358;2024-03-25T01:11:28;99460.94;;;7.81;88.88
41596;BME280;27283;52.504;13.358;2024-03-25T01:13:57;99463.78;;;8.18;85.59
41596;BME280;27283;52.504;13.358;2024-03-25T01:16:25;99455.84;;;8.24;86.76
41596;BME280;27283;52.504;13.358;2024-03-25T01:18:54;99453.13;;;7.48;87.64
41596;BME280;27283;52.504;13.358;2024-03-25T01:21:22;99453.06;;;7.33;88.99
41596;BME280;27283;52.504;13.358;2024-03-25T01:23:53;99461.69;;;7.43;89.25
41596;BME280;27283;52.504;13.358;2024-03-25T01:26:21;99468.38;;;7.48;88.68
41596;BME280;27283;52.504;13.358;2024-03-25T01:28:50;99465.97;;;7.99;86.56
41596;BME280;27283;52.504;13.358;2024-03-25T01:31:19;99471.44;;;7.83;86.50
41596;BME280;27283;52.504;13.358;2024-03-25T01:33:49;99468.19;;;7.49;87.70
41596;BME280;27283;52.504;13.358;2024-03-25T01:36:17;99467.22;;;7.88;86.69
41596;BME280;27283;52.504;13.358;2024-03-25T01:38:46;99469.19;;;7.94;87.55
41596;BME280;27283;52.504;13.358;2024-03-25T01:41:21;99471.56;;;7.43;88.40
41596;BME280;27283;52.504;13.358;2024-03-25T01:43:51;99477.25;;;7.86;87.29
41596;BME280;27283;52.504;13.358;2024-03-25T01:46:23;99480.41;;;6.72;90.71
41596;BME280;27283;52.504;13.358;2024-03-25T01:48:52;99479.94;;;7.08;89.97
41596;BME280;27283;52.504;13.358;2024-03-25T01:51:23;99491.63;;;7.07;90.18
41596;BME280;27283;52.504;13.358;2024-03-25T01:53:52;99490.19;;;6.97;89.86
41596;BME280;27283;52.504;13.358;2024-03-25T01:56:27;99497.34;;;6.40;91.41
41596;BME280;27283;52.504;13.358;2024-03-25T01:58:59;99498.84;;;6.51;90.54
41596;BME280;27283;52.504;13.358;2024-03-25T02:01:27;99501.31;;;6.69;89.37
41596;BME280;27283;52.504;13.358;2024-03-25T02:03:57;99495.34;;;6.34;89.95
41596;BME280;27283;52.504;13.358;2024-03-25T02:06:27;99498.41;;;7.26;87.44
41596;BME280;27283;52.504;13.358;2024-03-25T02:08:57;99501.78;;;6.72;88.80
41596;BME280;27283;52.504;13.358;2024-03-25T02:11:29;99503.00;;;7.41;86.57
41596;BME280;27283;52.504;13.358;2024-03-25T02:13:58;99507.19;;;5.90;90.12
41596;BME280;27283;52.504;13.358;2024-03-25T02:16:27;99511.19;;;6.44;91.17
41596;BME280;27283;52.504;13.358;2024-03-25T02:18:55;99516.56;;;6.27;90.78
41596;BME280;27283;52.504;13.358;2024-03-25T02:21:26;99515.56;;;6.45;91.20
41596;BME280;27283;52.504;13.358;2024-03-25T02:23:57;99516.03;;;6.48;91.04
41596;BME280;27283;52.504;13.358;2024-03-25T02:26:33;99517.84;;;6.56;91.56
41596;BME280;27283;52.504;13.358;2024-03-25T02:29:05;99523.50;;;6.61;92.49
41596;BME280;27283;52.504;13.358;2024-03-25T02:31:34;99519.63;;;6.80;91.63
41596;BME280;27283;52.504;13.358;2024-03-25T02:34:04;99516.84;;;7.13;90.53
41596;BME280;27283;52.504;13.358;2024-03-25T02:36:32;99520.72;;;6.46;92.18
41596;BME280;27283;52.504;13.358;2024-03-25T02:39:01;99524.88;;;6.57;92.76
41596;BME280;27283;52.504;13.358;2024-03-25T02:41:34;99528.22;;;6.43;93.38
41596;BME280;27283;52.504;13.358;2024-03-25T02:44:03;99525.75;;;6.97;92.40
41596;BME280;27283;52.504;13.358;2024-03-25T02:46:32;99531.88;;;6.50;93.33
41596;BME280;27283;52.504;13.358;2024-03-25T02:49:02;99532.03;;;6.65;93.15
41596;BME280;27283;52.504;13.358;2024-03-25T02:51:30;99537.06;;;6.35;93.36
41596;BME280;27283;52.504;13.358;2024-03-25T02:53:59;99541.38;;;6.61;93.00
41596;BME280;27283;52.504;13.358;2024-03-25T02:56:28;99547.47;;;6.94;91.72
41596;BME280;27283;52.504;13.358;2024-03-25T02:58:58;99549.00;;;6.80;91.06
41596;BME280;27283;52.504;13.358;2024-03-25T03:01:25;99550.91;;;6.47;92.70
41596;BME280;27283;52.504;13.358;2024-03-25T03:03:53;99560.94;;;6.28;93.42
41596;BME280;27283;52.504;13.358;2024-03-25T03:06:20;99561.59;;;6.38;94.34
41596;BME280;27283;52.504;13.358;2024-03-25T03:08:48;99555.41;;;6.05;94.96
41596;BME280;27283;52.504;13.358;2024-03-25T03:11:16;99567.94;;;6.54;92.82
41596;BME280;27283;52.504;13.358;2024-03-25T03:13:43;99568.44;;;6.16;94.05
41596;BME280;27283;52.504;13.358;2024-03-25T03:16:13;99573.63;;;6.26;95.25
41596;BME280;27283;52.504;13.358;2024-03-25T03:18:42;99573.13;;;6.23;94.21
41596;BME280;27283;52.504;13.358;2024-03-25T03:21:09;99571.91;;;6.58;93.55
41596;BME280;27283;52.504;13.358;2024-03-25T03:23:37;99578.84;;;7.48;89.42
41596;BME280;27283;52.504;13.358;2024-03-25T03:26:04;99577.25;;;6.58;91.95
41596;BME280;27283;52.504;13.358;2024-03-25T03:28:32;99592.81;;;6.54;91.90
41596;BME280;27283;52.504;13.358;2024-03-25T03:31:00;99594.81;;;6.36;91.97
41596;BME280;27283;52.504;13.358;2024-03-25T03:33:30;99598.72;;;7.14;90.43
41596;BME280;27283;52.504;13.358;2024-03-25T03:35:57;99605.22;;;5.80;93.79
41596;BME280;27283;52.504;13.358;2024-03-25T03:38:25;99597.97;;;6.15;93.84
41596;BME280;27283;52.504;13.358;2024-03-25T03:40:57;99601.28;;;6.74;90.31
41596;BME280;27283;52.504;13.358;2024-03-25T03:43:25;99612.78;;;7.00;90.59
41596;BME280;27283;52.504;13.358;2024-03-25T03:45:53;99613.66;;;6.43;92.12
41596;BME280;27283;52.504;13.358;2024-03-25T03:48:20;99609.00;;;6.28;93.90
41596;BME280;27283;52.504;13.358;2024-03-25T03:50:50;99625.38;;;6.42;93.53
41596;BME280;27283;52.504;13.358;2024-03-25T03:53:18;99627.84;;;6.76;89.97
41596;BME280;27283;52.504;13.358;2024-03-25T03:55:53;99631.16;;;6.12;93.10
41596;BME280;27283;52.504;13.358;2024-03-25T03:58:21;99629.38;;;6.37;93.42
41596;BME280;27283;52.504;13.358;2024-03-25T04:00:49;99633.19;;;6.27;93.03
41596;BME280;27283;52.504;13.358;2024-03-25T04:03:17;99635.69;;;6.61;92.92
41596;BME280;27283;52.504;13.358;2024-03-25T04:05:45;99637.84;;;6.90;89.65
41596;BME280;27283;52.504;13.358;2024-03-25T04:08:16;99631.34;;;6.27;93.19
41596;BME280;27283;52.504;13.358;2024-03-25T04:10:44;99640.50;;;7.07;90.67
41596;BME280;27283;52.504;13.358;2024-03-25T04:13:15;99643.69;;;6.61;91.13
41596;BME280;27283;52.504;13.358;2024-03-25T04:15:43;99643.53;;;6.79;92.44
41596;BME280;27283;52.504;13.358;2024-03-25T04:18:11;99650.81;;;7.18;89.47
41596;BME280;27283;52.504;13.358;2024-03-25T04:20:41;99659.25;;;7.47;88.43
41596;BME280;27283;52.504;13.358;2024-03-25T04:23:09;99657.81;;;7.75;86.56
41596;BME280;27283;52.504;13.358;2024-03-25T04:25:39;99655.56;;;6.75;91.02
41596;BME280;27283;52.504;13.358;2024-03-25T04:28:07;99667.41;;;6.81;90.39
41596;BME280;27283;52.504;13.358;2024-03-25T04:30:34;99658.41;;;6.65;93.13
41596;BME280;27283;52.504;13.358;2024-03-25T04:33:03;99668.59;;;6.95;90.43
41596;BME280;27283;52.504;13.358;2024-03-25T04:35:30;99672.75;;;7.05;91.44
41596;BME280;27283;52.504;13.358;2024-03-25T04:37:59;99672.44;;;6.51;92.84
41596;BME280;27283;52.504;13.358;2024-03-25T04:40:28;99676.06;;;7.07;91.87
41596;BME280;27283;52.504;13.358;2024-03-25T04:42:59;99689.47;;;6.99;91.11
41596;BME280;27283;52.504;13.358;2024-03-25T04:45:27;99691.28;;;6.82;90.69
41596;BME280;27283;52.504;13.358;2024-03-25T04:47:55;99684.78;;;6.60;93.93
41596;BME280;27283;52.504;13.358;2024-03-25T04:50:23;99689.78;;;6.96;92.58
41596;BME280;27283;52.504;13.358;2024-03-25T04:52:51;99688.94;;;7.20;92.81
41596;BME280;27283;52.504;13.358;2024-03-25T04:55:21;99698.28;;;7.80;88.60
41596;BME280;27283;52.504;13.358;2024-03-25T04:57:49;99702.94;;;6.40;94.44
41596;BME280;27283;52.504;13.358;2024-03-25T05:00:20;99702.63;;;6.76;91.80
41596;BME280;27283;52.504;13.358;2024-03-25T05:02:48;99709.16;;;6.82;91.76
41596;BME280;27283;52.504;13.358;2024-03-25T05:05:16;99718.00;;;6.90;91.99
41596;BME280;27283;52.504;13.358;2024-03-25T05:07:44;99710.81;;;6.50;92.99
41596;BME280;27283;52.504;13.358;2024-03-25T05:10:12;99714.97;;;6.44;94.08
41596;BME280;27283;52.504;13.358;2024-03-25T05:12:40;99722.66;;;7.05;91.92
41596;BME280;27283;52.504;13.358;2024-03-25T05:15:08;99723.50;;;6.97;91.25
41596;BME280;27283;52.504;13.358;2024-03-25T05:17:39;99731.66;;;7.45;90.37
41596;BME280;27283;52.504;13.358;2024-03-25T05:20:08;99728.34;;;7.18;91.08
41596;BME280;27283;52.504;13.358;2024-03-25T05:22:36;99736.22;;;6.95;90.59
41596;BME280;27283;52.504;13.358;2024-03-25T05:25:05;99741.91;;;7.08;91.23
41596;BME280;27283;52.504;13.358;2024-03-25T05:27:33;99738.16;;;7.42;88.94
41596;BME280;27283;52.504;13.358;2024-03-25T05:30:00;99740.38;;;6.89;91.16
41596;BME280;27283;52.504;13.358;2024-03-25T05:32:29;99745.06;;;6.96;91.33
41596;BME280;27283;52.504;13.358;2024-03-25T05:34:59;99744.91;;;7.05;90.44
41596;BME280;27283;52.504;13.358;2024-03-25T05:37:27;99752.63;;;6.25;93.94
41596;BME280;27283;52.504;13.358;2024-03-25T05:39:55;99757.91;;;6.59;93.60
41596;BME280;27283;52.504;13.358;2024-03-25T05:42:23;99769.94;;;6.63;93.57
41596;BME280;27283;52.504;13.358;2024-03-25T05:44:51;99765.03;;;6.42;94.78
41596;BME280;27283;52.504;13.358;2024-03-25T05:47:19;99770.81;;;6.21;95.70
41596;BME280;27283;52.504;13.358;2024-03-25T05:49:47;99773.25;;;6.57;94.54
41596;BME280;27283;52.504;13.358;2024-03-25T05:52:18;99775.97;;;6.98;92.66
41596;BME280;27283;52.504;13.358;2024-03-25T05:54:46;99782.75;;;6.51;94.87
41596;BME280;27283;52.504;13.358;2024-03-25T05:57:14;99787.97;;;6.69;93.99
41596;BME280;27283;52.504;13.358;2024-03-25T05:59:42;99784.44;;;6.52;93.24
41596;BME280;27283;52.504;13.358;2024-03-25T06:02:10;99792.00;;;6.98;93.22
41596;BME280;27283;52.504;13.358;2024-03-25T06:04:38;99785.78;;;6.65;92.88
41596;BME280;27283;52.504;13.358;2024-03-25T06:07:06;99799.28;;;6.55;91.91
41596;BME280;27283;52.504;13.358;2024-03-25T06:09:36;99797.41;;;6.47;93.99
41596;BME280;27283;52.504;13.358;2024-03-25T06:12:05;99799.34;;;6.80;92.90
41596;BME280;27283;52.504;13.358;2024-03-25T06:14:33;99804.22;;;7.09;90.68
41596;BME280;27283;52.504;13.358;2024-03-25T06:17:01;99813.03;;;6.85;91.63
41596;BME280;27283;52.504;13.358;2024-03-25T06:19:29;99811.50;;;6.66;92.05
41596;BME280;27283;52.504;13.358;2024-03-25T06:21:57;99816.41;;;7.28;91.09
41596;BME280;27283;52.504;13.358;2024-03-25T06:24:25;99819.16;;;6.52;92.92
41596;BME280;27283;52.504;13.358;2024-03-25T06:26:56;99820.63;;;6.47;93.96
41596;BME280;27283;52.504;13.358;2024-03-25T06:29:23;99825.63;;;6.42;94.91
41596;BME280;27283;52.504;13.358;2024-03-25T06:31:52;99834.97;;;6.46;93.71
41596;BME280;27283;52.504;13.358;2024-03-25T06:34:34;99836.19;;;6.60;93.25
41596;BME280;27283;52.504;13.358;2024-03-25T06:37:03;99838.53;;;6.20;92.74
41596;BME280;27283;52.504;13.358;2024-03-25T06:39:31;99838.94;;;6.92;92.39
41596;BME280;27283;52.504;13.358;2024-03-25T06:42:01;99851.88;;;6.54;91.61
41596;BME280;27283;52.504;13.358;2024-03-25T06:44:29;99844.72;;;6.71;91.46
41596;BME280;27283;52.504;13.358;2024-03-25T06:46:58;99858.47;;;6.85;91.41
41596;BME280;27283;52.504;13.358;2024-03-25T06:49:25;99855.84;;;6.42;92.99
41596;BME280;27283;52.504;13.358;2024-03-25T06:51:54;99864.41;;;6.62;91.74
41596;BME280;27283;52.504;13.358;2024-03-25T06:54:22;99869.16;;;6.77;91.33
41596;BME280;27283;52.504;13.358;2024-03-25T06:56:50;99870.72;;;6.45;93.38
41596;BME280;27283;52.504;13.358;2024-03-25T06:59:20;99873.84;;;6.40;92.91
41596;BME280;27283;52.504;13.358;2024-03-25T07:01:48;99884.13;;;6.27;94.10
41596;BME280;27283;52.504;13.358;2024-03-25T07:04:16;99884.56;;;6.14;94.80
41596;BME280;27283;52.504;13.358;2024-03-25T07:06:44;99886.75;;;7.12;91.67
41596;BME280;27283;52.504;13.358;2024-03-25T07:09:12;99891.06;;;6.46;95.56
41596;BME280;27283;52.504;13.358;2024-03-25T07:11:40;99904.41;;;6.88;93.09
41596;BME280;27283;52.504;13.358;2024-03-25T07:14:09;99904.72;;;6.43;95.51
41596;BME280;27283;52.504;13.358;2024-03-25T07:16:39;99910.34;;;6.66;94.45
41596;BME280;27283;52.504;13.358;2024-03-25T07:19:07;99920.50;;;6.28;95.41
41596;BME280;27283;52.504;13.358;2024-03-25T07:21:35;99917.00;;;7.21;94.10
41596;BME280;27283;52.504;13.358;2024-03-25T07:24:04;99916.31;;;6.60;93.60
41596;BME280;27283;52.504;13.358;2024-03-25T07:26:32;99925.59;;;6.39;95.38
41596;BME280;27283;52.504;13.358;2024-03-25T07:29:00;99924.94;;;6.80;93.37
41596;BME280;27283;52.504;13.358;2024-03-25T07:31:28;99932.47;;;6.92;91.20
41596;BME280;27283;52.504;13.358;2024-03-25T07:33:58;99935.94;;;6.77;92.29
41596;BME280;27283;52.504;13.358;2024-03-25T07:36:27;99923.06;;;6.72;92.72
41596;BME280;27283;52.504;13.358;2024-03-25T07:38:54;99938.56;;;7.11;91.36
41596;BME280;27283;52.504;13.358;2024-03-25T07:41:23;99943.28;;;7.50;88.82
41596;BME280;27283;52.504;13.358;2024-03-25T07:43:52;99944.81;;;6.85;92.51
41596;BME280;27283;52.504;13.358;2024-03-25T07:46:20;99955.66;;;8.09;88.74
41596;BME280;27283;52.504;13.358;2024-03-25T07:48:48;99950.34;;;7.84;86.99
41596;BME280;27283;52.504;13.358;2024-03-25T07:51:19;99946.63;;;6.77;91.90
41596;BME280;27283;52.504;13.358;2024-03-25T07:53:47;99951.31;;;6.83;90.77
41596;BME280;27283;52.504;13.358;2024-03-25T07:56:15;99961.09;;;7.17;91.69
41596;BME280;27283;52.504;13.358;2024-03-25T07:58:43;99964.03;;;7.65;89.71
41596;BME280;27283;52.504;13.358;2024-03-25T08:01:12;99963.66;;;6.84;90.45
41596;BME280;27283;52.504;13.358;2024-03-25T08:03:40;99966.63;;;6.72;91.86
41596;BME280;27283;52.504;13.358;2024-03-25T08:06:08;99964.41;;;6.60;91.69
41596;BME280;27283;52.504;13.358;2024-03-25T08:08:39;99973.78;;;7.06;90.09
41596;BME280;27283;52.504;13.358;2024-03-25T08:11:07;99973.59;;;7.00;92.00
41596;BME280;27283;52.504;13.358;2024-03-25T08:13:34;99975.66;;;7.14;90.43
41596;BME280;27283;52.504;13.358;2024-03-25T08:16:04;99973.53;;;7.34;90.00
41596;BME280;27283;52.504;13.358;2024-03-25T08:18:34;99984.63;;;7.80;89.38
41596;BME280;27283;52.504;13.358;2024-03-25T08:21:03;99992.16;;;7.93;88.46
41596;BME280;27283;52.504;13.358;2024-03-25T08:23:33;99989.94;;;8.38;87.38
41596;BME280;27283;52.504;13.358;2024-03-25T08:26:04;99993.31;;;8.24;88.07
41596;BME280;27283;52.504;13.358;2024-03-25T08:28:32;99992.78;;;8.53;84.88
41596;BME280;27283;52.504;13.358;2024-03-25T08:31:01;99997.50;;;7.77;89.68
41596;BME280;27283;52.504;13.358;2024-03-25T08:33:29;99999.59;;;8.80;85.94
41596;BME280;27283;52.504;13.358;2024-03-25T08:35:57;100001.97;;;8.42;86.15
41596;BME280;27283;52.504;13.358;2024-03-25T08:38:25;100009.00;;;8.60;85.69
41596;BME280;27283;52.504;13.358;2024-03-25T08:40:54;100011.34;;;8.63;84.91
41596;BME280;27283;52.504;13.358;2024-03-25T08:43:41;100013.94;;;8.87;83.97
41596;BME280;27283;52.504;13.358;2024-03-25T08:46:10;100015.53;;;8.57;84.45
41596;BME280;27283;52.504;13.358;2024-03-25T08:48:38;100008.31;;;8.74;84.31
41596;BME280;27283;52.504;13.358;2024-03-25T08:51:06;100018.34;;;8.72;85.37
41596;BME280;27283;52.504;13.358;2024-03-25T08:53:35;100025.34;;;7.33;90.00
41596;BME280;27283;52.504;13.358;2024-03-25T08:56:03;100023.56;;;8.57;87.66
41596;BME280;27283;52.504;13.358;2024-03-25T08:58:32;100035.13;;;8.66;85.64
41596;BME280;27283;52.504;13.358;2024-03-25T09:01:03;100029.97;;;7.90;87.39
41596;BME280;27283;52.504;13.358;2024-03-25T09:03:32;100030.75;;;9.52;83.36
41596;BME280;27283;52.504;13.358;2024-03-25T09:06:02;100036.69;;;9.08;80.88
41596;BME280;27283;52.504;13.358;2024-03-25T09:08:30;100038.50;;;8.10;82.84
41596;BME280;27283;52.504;13.358;2024-03-25T09:10:58;100043.00;;;8.67;82.89
41596;BME280;27283;52.504;13.358;2024-03-25T09:13:32;100044.81;;;8.75;80.03
41596;BME280;27283;52.504;13.358;2024-03-25T09:16:04;100050.34;;;8.82;80.33
41596;BME280;27283;52.504;13.358;2024-03-25T09:18:32;100054.59;;;8.51;80.74
41596;BME280;27283;52.504;13.358;2024-03-25T09:21:00;100049.56;;;8.15;81.18
41596;BME280;27283;52.504;13.358;2024-03-25T09:23:29;100057.13;;;9.09;80.60
41596;BME280;27283;52.504;13.358;2024-03-25T09:25:58;100058.69;;;8.87;79.05
41596;BME280;27283;52.504;13.358;2024-03-25T09:28:26;100064.03;;;7.55;84.20
41596;BME280;27283;52.504;13.358;2024-03-25T09:30:54;100068.09;;;7.84;85.66
41596;BME280;27283;52.504;13.358;2024-03-25T09:33:26;100070.91;;;7.66;83.71
41596;BME280;27283;52.504;13.358;2024-03-25T09:36:03;100076.28;;;7.91;84.54
41596;BME280;27283;52.504;13.358;2024-03-25T09:38:31;100078.44;;;7.71;85.50
41596;BME280;27283;52.504;13.358;2024-03-25T09:41:00;100087.34;;;7.88;84.22
41596;BME280;27283;52.504;13.358;2024-03-25T09:43:32;100084.53;;;8.14;83.66
41596;BME280;27283;52.504;13.358;2024-03-25T09:46:02;100080.78;;;7.66;85.13
41596;BME280;27283;52.504;13.358;2024-03-25T09:48:32;100079.53;;;8.27;84.43
41596;BME280;27283;52.504;13.358;2024-03-25T09:51:02;100080.41;;;9.17;80.34
41596;BME280;27283;52.504;13.358;2024-03-25T09:53:31;100083.72;;;8.46;82.48
41596;BME280;27283;52.504;13.358;2024-03-25T09:56:00;100080.88;;;10.38;79.24
41596;BME280;27283;52.504;13.358;2024-03-25T09:58:29;100091.66;;;10.06;74.70
41596;BME280;27283;52.504;13.358;2024-03-25T10:00:58;100089.88;;;9.67;75.98
41596;BME280;27283;52.504;13.358;2024-03-25T10:03:26;100090.47;;;9.86;75.21
41596;BME280;27283;52.504;13.358;2024-03-25T10:05:58;100094.75;;;8.60;78.61
41596;BME280;27283;52.504;13.358;2024-03-25T10:08:26;100096.91;;;8.81;77.44
41596;BME280;27283;52.504;13.358;2024-03-25T10:10:54;100104.28;;;8.95;77.18
41596;BME280;27283;52.504;13.358;2024-03-25T10:13:22;100101.84;;;9.88;74.31
41596;BME280;27283;52.504;13.358;2024-03-25T10:15:50;100109.09;;;9.08;77.04
41596;BME280;27283;52.504;13.358;2024-03-25T10:18:18;100103.28;;;9.75;75.41
41596;BME280;27283;52.504;13.358;2024-03-25T10:20:50;100104.75;;;10.33;70.71
41596;BME280;27283;52.504;13.358;2024-03-25T10:23:24;100101.66;;;11.42;66.08
41596;BME280;27283;52.504;13.358;2024-03-25T10:25:53;100105.09;;;11.21;66.94
41596;BME280;27283;52.504;13.358;2024-03-25T10:28:20;100109.28;;;11.08;65.06
41596;BME280;27283;52.504;13.358;2024-03-25T10:30:49;100109.09;;;11.25;63.80
41596;BME280;27283;52.504;13.358;2024-03-25T10:33:17;100118.34;;;9.76;69.36
41596;BME280;27283;52.504;13.358;2024-03-25T10:35:48;100110.63;;;10.28;68.96
41596;BME280;27283;52.504;13.358;2024-03-25T10:38:17;100123.66;;;11.15;64.45
41596;BME280;27283;52.504;13.358;2024-03-25T10:40:49;100125.31;;;11.31;62.20
41596;BME280;27283;52.504;13.358;2024-03-25T10:43:18;100126.28;;;10.71;61.99
41596;BME280;27283;52.504;13.358;2024-03-25T10:45:49;100117.78;;;11.57;59.69
41596;BME280;27283;52.504;13.358;2024-03-25T10:48:20;100120.09;;;10.24;63.67
41596;BME280;27283;52.504;13.358;2024-03-25T10:50:51;100130.59;;;9.79;62.93
41596;BME280;27283;52.504;13.358;2024-03-25T10:53:22;100118.88;;;8.76;68.43
41596;BME280;27283;52.504;13.358;2024-03-25T10:55:54;100120.38;;;10.29;65.63
41596;BME280;27283;52.504;13.358;2024-03-25T10:58:22;100123.38;;;11.10;64.41
41596;BME280;27283;52.504;13.358;2024-03-25T11:00:52;100117.56;;;10.69;64.93
41596;BME280;27283;52.504;13.358;2024-03-25T11:03:21;100128.75;;;11.10;59.90
41596;BME280;27283;52.504;13.358;2024-03-25T11:05:49;100130.88;;;11.15;59.85
41596;BME280;27283;52.504;13.358;2024-03-25T11:08:17;100121.66;;;9.87;63.23
41596;BME280;27283;52.504;13.358;2024-03-25T11:10:50;100128.22;;;10.62;59.91
41596;BME280;27283;52.504;13.358;2024-03-25T11:13:21;100127.25;;;10.08;63.57
41596;BME280;27283;52.504;13.358;2024-03-25T11:15:49;100125.06;;;11.11;62.31
41596;BME280;27283;52.504;13.358;2024-03-25T11:18:18;100126.66;;;10.21;61.73
41596;BME280;27283;52.504;13.358;2024-03-25T11:21:00;100123.69;;;9.53;62.56
41596;BME280;27283;52.504;13.358;2024-03-25T11:23:35;100119.59;;;10.67;62.44
41596;BME280;27283;52.504;13.358;2024-03-25T11:26:04;100113.22;;;9.27;65.36
41596;BME280;27283;52.504;13.358;2024-03-25T11:28:34;100117.88;;;10.51;66.09
41596;BME280;27283;52.504;13.358;2024-03-25T11:31:03;100115.63;;;12.40;55.93
41596;BME280;27283;52.504;13.358;2024-03-25T11:33:31;100108.75;;;12.16;56.90
41596;BME280;27283;52.504;13.358;2024-03-25T11:36:00;100119.53;;;11.64;58.69
41596;BME280;27283;52.504;13.358;2024-03-25T11:38:28;100114.72;;;12.11;54.92
41596;BME280;27283;52.504;13.358;2024-03-25T11:41:00;100113.19;;;11.21;58.93
41596;BME280;27283;52.504;13.358;2024-03-25T11:43:28;100114.47;;;12.28;55.47
41596;BME280;27283;52.504;13.358;2024-03-25T11:45:59;100118.38;;;10.31;59.54
41596;BME280;27283;52.504;13.358;2024-03-25T11:48:29;100117.06;;;11.33;56.88
41596;BME280;27283;52.504;13.358;2024-03-25T11:51:00;100110.81;;;10.26;58.33
41596;BME280;27283;52.504;13.358;2024-03-25T11:53:30;100121.25;;;10.53;57.07
41596;BME280;27283;52.504;13.358;2024-03-25T11:55:59;100123.31;;;9.56;60.29
41596;BME280;27283;52.504;13.358;2024-03-25T11:58:27;100113.00;;;9.76;60.95
41596;BME280;27283;52.504;13.358;2024-03-25T12:01:00;100119.38;;;10.53;58.31
41596;BME280;27283;52.504;13.358;2024-03-25T12:03:28;100111.56;;;10.43;58.29
41596;BME280;27283;52.504;13.358;2024-03-25T12:05:57;100125.41;;;11.38;55.19
41596;BME280;27283;52.504;13.358;2024-03-25T12:08:25;100121.53;;;10.58;56.72
41596;BME280;27283;52.504;13.358;2024-03-25T12:10:54;100120.69;;;9.80;58.35
41596;BME280;27283;52.504;13.358;2024-03-25T12:13:38;100110.84;;;10.88;58.91
41596;BME280;27283;52.504;13.358;2024-03-25T12:16:11;100112.84;;;11.75;53.40
41596;BME280;27283;52.504;13.358;2024-03-25T12:18:40;100111.78;;;12.28;51.77
41596;BME280;27283;52.504;13.358;2024-03-25T12:21:11;100110.44;;;10.38;57.23
41596;BME280;27283;52.504;13.358;2024-03-25T12:23:42;100107.13;;;10.04;57.70
41596;BME280;27283;52.504;13.358;2024-03-25T12:26:14;100104.50;;;9.65;59.03
41596;BME280;27283;52.504;13.358;2024-03-25T12:28:42;100102.84;;;9.64;58.81
41596;BME280;27283;52.504;13.358;2024-03-25T12:31:15;100101.38;;;10.92;57.51
41596;BME280;27283;52.504;13.358;2024-03-25T12:33:44;100101.63;;;10.82;53.85
41596;BME280;27283;52.504;13.358;2024-03-25T12:36:13;100103.97;;;11.30;54.25
41596;BME280;27283;52.504;13.358;2024-03-25T12:38:43;100114.19;;;10.28;54.44
41596;BME280;27283;52.504;13.358;2024-03-25T12:41:12;100110.34;;;11.74;52.03
41596;BME280;27283;52.504;13.358;2024-03-25T12:43:43;100109.91;;;11.55;52.91
41596;BME280;27283;52.504;13.358;2024-03-25T12:46:15;100121.13;;;10.84;51.56
41596;BME280;27283;52.504;13.358;2024-03-25T12:48:45;100127.03;;;10.64;52.14
41596;BME280;27283;52.504;13.358;2024-03-25T12:51:15;100125.88;;;10.59;52.41
41596;BME280;27283;52.504;13.358;2024-03-25T12:53:43;100127.94;;;10.02;54.55
41596;BME280;27283;52.504;13.358;2024-03-25T12:56:12;100127.66;;;10.20;54.71
41596;BME280;27283;52.504;13.358;2024-03-25T12:58:41;100133.81;;;10.29;54.36
41596;BME280;27283;52.504;13.358;2024-03-25T13:01:18;100130.56;;;9.87;55.53
41596;BME280;27283;52.504;13.358;2024-03-25T13:03:50;100131.31;;;10.04;56.02
41596;BME280;27283;52.504;13.358;2024-03-25T13:06:19;100124.84;;;10.14;55.22